createdAt,value
2023-03-06T00:00:35.024Z,78.88
2023-03-06T00:01:08.713Z,78.18
2023-03-06T00:01:40.465Z,78.62
2023-03-06T00:02:12.132Z,79.02
2023-03-06T00:02:44.561Z,79.71
2023-03-06T00:03:16.569Z,79.91
2023-03-06T00:03:48.385Z,80.57
2023-03-06T00:04:20.475Z,80.60
2023-03-06T00:04:53.449Z,80.95
2023-03-06T00:05:25.227Z,80.60
2023-03-06T00:05:58.956Z,80.21
2023-03-06T00:06:30.771Z,80.84
2023-03-06T00:07:02.478Z,81.51
2023-03-06T00:07:34.050Z,81.27
2023-03-06T00:08:06.295Z,80.85
2023-03-06T00:08:38.043Z,80.68
2023-03-06T00:09:10.673Z,80.76
2023-03-06T00:09:42.256Z,80.87
2023-03-06T00:10:19.932Z,80.74
2023-03-06T00:10:51.588Z,80.32
2023-03-06T00:11:23.188Z,79.53
2023-03-06T00:11:54.924Z,79.49
2023-03-06T00:12:27.643Z,80.21
2023-03-06T00:13:02.649Z,80.77
2023-03-06T00:13:35.143Z,81.07
2023-03-06T00:14:06.746Z,81.38
2023-03-06T00:14:38.316Z,80.98
2023-03-06T00:15:10.824Z,80.74
2023-03-06T00:15:42.534Z,80.84
2023-03-06T00:16:14.199Z,81.52
2023-03-06T00:16:45.869Z,82.02
2023-03-06T00:17:17.599Z,81.51
2023-03-06T00:17:49.259Z,81.21
2023-03-06T00:18:20.887Z,80.80
2023-03-06T00:18:52.729Z,80.31
2023-03-06T00:19:24.521Z,80.57
2023-03-06T00:19:56.299Z,80.89
2023-03-06T00:20:28.068Z,81.58
2023-03-06T00:21:00.121Z,82.05
2023-03-06T00:21:31.820Z,81.85
2023-03-06T00:22:03.409Z,81.56
2023-03-06T00:22:35.010Z,81.51
2023-03-06T00:23:08.462Z,81.48
2023-03-06T00:23:41.386Z,81.70
2023-03-06T00:24:13.083Z,81.28
2023-03-06T00:24:44.771Z,81.11
2023-03-06T00:25:19.142Z,80.94
2023-03-06T00:25:50.948Z,80.88
2023-03-06T00:26:22.584Z,80.74
2023-03-06T00:26:54.224Z,80.44
2023-03-06T00:27:26.392Z,80.13
2023-03-06T00:27:58.072Z,80.36
2023-03-06T00:28:31.577Z,80.56
2023-03-06T00:29:03.400Z,80.61
2023-03-06T00:29:36.154Z,80.35
2023-03-06T00:30:10.519Z,80.13
2023-03-06T00:30:42.232Z,80.12
2023-03-06T00:31:14.022Z,80.07
2023-03-06T00:31:48.045Z,81.12
2023-03-06T00:32:19.743Z,81.01
2023-03-06T00:32:53.039Z,80.34
2023-03-06T00:33:24.710Z,79.99
2023-03-06T00:33:56.323Z,79.89
2023-03-06T00:34:28.304Z,80.08
2023-03-06T00:35:00.047Z,79.87
2023-03-06T00:35:31.711Z,79.68
2023-03-06T00:36:06.641Z,79.48
2023-03-06T00:36:38.243Z,79.23
2023-03-06T00:37:09.829Z,79.42
2023-03-06T00:37:42.308Z,79.67
2023-03-06T00:38:14.321Z,79.88
2023-03-06T00:38:46.083Z,80.19
2023-03-06T00:39:17.864Z,80.26
2023-03-06T00:39:50.166Z,80.29
2023-03-06T00:40:22.274Z,80.23
2023-03-06T00:40:53.884Z,80.07
2023-03-06T00:41:27.145Z,80.03
2023-03-06T00:41:58.737Z,79.95
2023-03-06T00:42:30.369Z,79.71
2023-03-06T00:43:02.006Z,79.99
2023-03-06T00:43:33.586Z,79.92
2023-03-06T00:44:05.399Z,79.68
2023-03-06T00:44:37.204Z,79.72
2023-03-06T00:45:09.922Z,79.70
2023-03-06T00:45:41.557Z,79.69
2023-03-06T00:46:13.371Z,79.69
2023-03-06T00:46:44.959Z,79.58
2023-03-06T00:47:19.722Z,79.35
2023-03-06T00:47:51.445Z,79.64
2023-03-06T00:48:23.332Z,79.70
2023-03-06T00:48:54.938Z,79.71
2023-03-06T00:49:26.622Z,79.65
2023-03-06T00:49:58.301Z,80.11
2023-03-06T00:50:29.928Z,80.08
2023-03-06T00:51:01.882Z,80.53
2023-03-06T00:51:33.472Z,81.10
2023-03-06T00:52:05.512Z,81.48
2023-03-06T00:52:37.267Z,81.50
2023-03-06T00:53:11.081Z,81.62
2023-03-06T00:53:42.837Z,81.42
2023-03-06T00:54:14.522Z,81.16
2023-03-06T00:54:46.098Z,81.19
2023-03-06T00:55:17.669Z,81.54
2023-03-06T00:55:50.845Z,81.76
2023-03-06T00:56:22.638Z,81.54
2023-03-06T00:56:54.353Z,81.21
2023-03-06T00:57:26.034Z,80.96
2023-03-06T00:57:57.697Z,81.16
2023-03-06T00:58:29.295Z,81.61
2023-03-06T00:59:00.909Z,81.56
2023-03-06T00:59:32.718Z,81.13
2023-03-06T01:00:06.158Z,81.20
2023-03-06T01:00:38.181Z,80.85
2023-03-06T01:01:09.858Z,80.80
2023-03-06T01:01:41.608Z,81.47
2023-03-06T01:02:13.565Z,81.83
2023-03-06T01:02:45.364Z,81.97
2023-03-06T01:03:17.033Z,81.46
2023-03-06T01:03:48.822Z,80.06
2023-03-06T01:04:20.817Z,79.49
2023-03-06T01:04:52.595Z,79.27
2023-03-06T01:05:24.934Z,79.48
2023-03-06T01:05:56.786Z,80.13
2023-03-06T01:06:28.769Z,80.50
2023-03-06T01:07:00.397Z,78.95
2023-03-06T01:07:34.145Z,78.17
2023-03-06T01:08:06.591Z,78.45
2023-03-06T01:08:38.427Z,78.57
2023-03-06T01:09:10.121Z,79.15
2023-03-06T01:09:41.989Z,79.96
2023-03-06T01:10:13.653Z,80.27
2023-03-06T01:10:45.251Z,80.45
2023-03-06T01:11:16.820Z,79.92
2023-03-06T01:11:48.503Z,79.55
2023-03-06T01:12:22.796Z,79.78
2023-03-06T01:12:55.562Z,79.06
2023-03-06T01:13:27.312Z,78.19
2023-03-06T01:13:59.000Z,78.50
2023-03-06T01:14:32.049Z,79.50
2023-03-06T01:15:05.200Z,79.36
2023-03-06T01:15:36.903Z,78.63
2023-03-06T01:16:11.252Z,78.54
2023-03-06T01:16:42.934Z,79.90
2023-03-06T01:17:16.015Z,79.41
2023-03-06T01:17:48.302Z,78.88
2023-03-06T01:18:19.983Z,79.25
2023-03-06T01:18:51.597Z,79.33
2023-03-06T01:19:23.306Z,79.33
2023-03-06T01:19:54.947Z,79.31
2023-03-06T01:20:27.146Z,79.06
2023-03-06T01:20:58.829Z,78.80
2023-03-06T01:21:30.516Z,78.66
2023-03-06T01:22:02.103Z,79.10
2023-03-06T01:22:33.732Z,79.42
2023-03-06T01:23:05.367Z,79.51
2023-03-06T01:23:37.175Z,79.43
2023-03-06T01:24:09.085Z,79.35
2023-03-06T01:24:40.743Z,78.98
2023-03-06T01:25:13.080Z,78.92
2023-03-06T01:25:45.148Z,79.00
2023-03-06T01:26:16.937Z,79.02
2023-03-06T01:26:48.662Z,78.60
2023-03-06T01:27:20.301Z,78.74
2023-03-06T01:27:53.160Z,78.88
2023-03-06T01:28:25.104Z,78.92
2023-03-06T01:28:57.666Z,78.70
2023-03-06T01:29:29.409Z,78.73
2023-03-06T01:30:01.020Z,78.78
2023-03-06T01:30:32.667Z,78.50
2023-03-06T01:31:05.599Z,78.35
2023-03-06T01:31:37.662Z,78.39
2023-03-06T01:32:09.416Z,78.22
2023-03-06T01:32:41.153Z,78.71
2023-03-06T01:33:12.907Z,79.06
2023-03-06T01:33:44.640Z,78.86
2023-03-06T01:34:16.256Z,78.81
2023-03-06T01:34:47.892Z,78.51
2023-03-06T01:35:19.701Z,78.92
2023-03-06T01:35:51.375Z,78.65
2023-03-06T01:36:22.982Z,78.28
2023-03-06T01:36:54.603Z,78.22
2023-03-06T01:37:26.184Z,78.23
2023-03-06T01:37:57.786Z,78.14
2023-03-06T01:38:29.819Z,77.93
2023-03-06T01:39:01.737Z,77.62
2023-03-06T01:39:33.519Z,77.47
2023-03-06T01:40:07.017Z,77.68
2023-03-06T01:40:39.084Z,77.84
2023-03-06T01:41:17.362Z,77.46
2023-03-06T01:41:48.980Z,78.02
2023-03-06T01:42:20.596Z,78.24
2023-03-06T01:42:52.343Z,78.01
2023-03-06T01:43:29.714Z,77.64
2023-03-06T01:44:02.369Z,77.55
2023-03-06T01:44:34.313Z,77.79
2023-03-06T01:45:06.103Z,77.98
2023-03-06T01:45:37.837Z,77.64
2023-03-06T01:46:31.094Z,77.21
2023-03-06T01:47:02.829Z,77.12
2023-03-06T01:47:34.476Z,77.14
2023-03-06T01:48:06.111Z,77.03
2023-03-06T01:48:38.382Z,76.82
2023-03-06T01:49:21.151Z,76.53
2023-03-06T01:49:53.526Z,76.56
2023-03-06T01:50:25.516Z,76.60
2023-03-06T01:50:57.197Z,76.86
2023-03-06T01:51:32.506Z,76.99
2023-03-06T01:52:09.048Z,76.74
2023-03-06T01:52:50.833Z,77.55
2023-03-06T01:53:22.676Z,78.18
2023-03-06T01:53:55.600Z,78.05
2023-03-06T01:54:41.732Z,77.73
2023-03-06T01:55:20.609Z,77.22
2023-03-06T01:55:52.558Z,76.83
2023-03-06T01:56:25.464Z,76.80
2023-03-06T01:57:03.493Z,76.87
2023-03-06T01:57:43.158Z,76.95
2023-03-06T01:58:18.244Z,76.69
2023-03-06T01:58:51.422Z,76.55
2023-03-06T01:59:24.764Z,76.61
2023-03-06T02:00:04.046Z,76.65
2023-03-06T02:00:35.733Z,76.82
2023-03-06T02:01:07.402Z,76.93
2023-03-06T02:01:40.017Z,76.65
2023-03-06T02:02:14.308Z,76.49
2023-03-06T02:03:09.763Z,76.75
2023-03-06T02:03:43.482Z,76.77
2023-03-06T02:04:17.321Z,76.62
2023-03-06T02:04:49.038Z,76.85
2023-03-06T02:05:21.421Z,76.96
2023-03-06T02:05:53.301Z,76.81
2023-03-06T02:06:26.080Z,76.78
2023-03-06T02:07:00.568Z,76.67
2023-03-06T02:07:32.874Z,76.77
2023-03-06T02:08:05.897Z,77.17
2023-03-06T02:08:38.070Z,77.68
2023-03-06T02:09:11.245Z,77.45
2023-03-06T02:09:42.829Z,77.56
2023-03-06T02:10:15.793Z,77.52
2023-03-06T02:10:59.430Z,77.43
2023-03-06T02:11:31.200Z,77.69
2023-03-06T02:12:07.934Z,77.90
2023-03-06T02:12:42.367Z,77.58
2023-03-06T02:13:13.987Z,77.42
2023-03-06T02:13:46.736Z,77.71
2023-03-06T02:14:18.542Z,77.92
2023-03-06T02:14:50.741Z,77.63
2023-03-06T02:15:25.805Z,77.33
2023-03-06T02:15:58.290Z,77.35
2023-03-06T02:16:31.906Z,77.45
2023-03-06T02:17:03.893Z,77.75
2023-03-06T02:17:36.208Z,77.45
2023-03-06T02:18:08.205Z,77.40
2023-03-06T02:18:41.988Z,77.37
2023-03-06T02:19:34.087Z,77.66
2023-03-06T02:20:29.857Z,77.55
2023-03-06T02:21:10.207Z,77.53
2023-03-06T02:21:42.189Z,77.84
2023-03-06T02:22:13.794Z,78.00
2023-03-06T02:22:48.086Z,77.67
2023-03-06T02:23:34.005Z,77.57
2023-03-06T02:24:05.610Z,77.74
2023-03-06T02:24:37.169Z,77.73
2023-03-06T02:25:22.423Z,77.61
2023-03-06T02:25:54.507Z,77.55
2023-03-06T02:26:27.807Z,77.48
2023-03-06T02:27:00.520Z,77.56
2023-03-06T02:27:32.704Z,78.25
2023-03-06T02:28:06.228Z,78.48
2023-03-06T02:28:39.932Z,78.26
2023-03-06T02:29:11.850Z,78.89
2023-03-06T02:29:43.721Z,78.45
2023-03-06T02:30:17.527Z,78.63
2023-03-06T02:30:51.626Z,78.95
2023-03-06T02:31:29.451Z,78.78
2023-03-06T02:32:01.424Z,78.62
2023-03-06T02:32:33.118Z,78.37
2023-03-06T02:33:05.693Z,78.29
2023-03-06T02:33:37.298Z,78.36
2023-03-06T02:34:15.006Z,78.68
2023-03-06T02:34:53.541Z,79.15
2023-03-06T02:35:30.815Z,78.88
2023-03-06T02:36:05.742Z,78.54
2023-03-06T02:36:43.190Z,78.49
2023-03-06T02:37:14.808Z,78.93
2023-03-06T02:37:47.193Z,79.07
2023-03-06T02:38:22.106Z,79.00
2023-03-06T02:38:53.815Z,78.99
2023-03-06T02:39:28.348Z,78.97
2023-03-06T02:40:08.354Z,78.78
2023-03-06T02:40:43.829Z,78.99
2023-03-06T02:41:15.854Z,79.00
2023-03-06T02:41:47.523Z,78.97
2023-03-06T02:42:25.331Z,79.18
2023-03-06T02:42:58.755Z,79.35
2023-03-06T02:43:34.367Z,79.66
2023-03-06T02:44:06.048Z,79.39
2023-03-06T02:44:37.748Z,79.00
2023-03-06T02:45:11.237Z,78.84
2023-03-06T02:45:46.456Z,78.38
2023-03-06T02:46:18.376Z,78.22
2023-03-06T02:46:50.183Z,77.95
2023-03-06T02:47:21.836Z,78.34
2023-03-06T02:47:53.496Z,78.39
2023-03-06T02:48:25.252Z,78.21
2023-03-06T02:48:56.924Z,78.15
2023-03-06T02:49:28.540Z,78.33
2023-03-06T02:50:00.206Z,78.42
2023-03-06T02:50:32.171Z,78.39
2023-03-06T02:51:03.785Z,78.00
2023-03-06T02:51:35.448Z,77.77
2023-03-06T02:52:08.043Z,77.65
2023-03-06T02:52:39.632Z,77.65
2023-03-06T02:53:14.269Z,77.33
2023-03-06T02:53:45.898Z,77.32
2023-03-06T02:54:20.531Z,77.06
2023-03-06T02:54:52.151Z,77.09
2023-03-06T02:55:23.861Z,77.08
2023-03-06T02:55:55.659Z,77.34
2023-03-06T02:56:27.343Z,77.39
2023-03-06T02:56:58.987Z,77.07
2023-03-06T02:57:30.605Z,76.89
2023-03-06T02:58:02.457Z,76.70
2023-03-06T02:58:34.126Z,76.74
2023-03-06T02:59:05.763Z,76.83
2023-03-06T02:59:37.403Z,76.82
2023-03-06T03:00:10.117Z,76.55
2023-03-06T03:00:41.720Z,76.07
2023-03-06T03:01:13.545Z,76.10
2023-03-06T03:01:45.671Z,76.32
2023-03-06T03:02:17.335Z,76.45
2023-03-06T03:02:49.018Z,76.87
2023-03-06T03:03:20.650Z,76.61
2023-03-06T03:03:52.264Z,76.30
2023-03-06T03:04:23.937Z,75.84
2023-03-06T03:04:55.671Z,75.71
2023-03-06T03:05:27.502Z,76.02
2023-03-06T03:06:00.254Z,76.13
2023-03-06T03:06:31.838Z,76.05
2023-03-06T03:07:03.738Z,76.16
2023-03-06T03:07:35.494Z,76.07
2023-03-06T03:08:07.122Z,76.27
2023-03-06T03:08:38.728Z,76.12
2023-03-06T03:09:10.400Z,76.06
2023-03-06T03:09:42.289Z,75.91
2023-03-06T03:10:15.021Z,75.58
2023-03-06T03:10:46.743Z,75.49
2023-03-06T03:11:18.546Z,75.26
2023-03-06T03:11:50.219Z,75.26
2023-03-06T03:12:22.512Z,75.06
2023-03-06T03:12:54.117Z,74.97
2023-03-06T03:13:25.765Z,75.27
2023-03-06T03:13:57.629Z,75.32
2023-03-06T03:14:29.398Z,75.16
2023-03-06T03:15:01.021Z,75.41
2023-03-06T03:15:32.834Z,75.34
2023-03-06T03:16:07.905Z,75.74
2023-03-06T03:16:39.654Z,75.57
2023-03-06T03:17:11.351Z,75.34
2023-03-06T03:17:43.107Z,75.37
2023-03-06T03:18:14.755Z,75.38
2023-03-06T03:18:48.115Z,75.37
2023-03-06T03:19:19.844Z,75.71
2023-03-06T03:19:51.748Z,76.10
2023-03-06T03:20:24.046Z,76.06
2023-03-06T03:20:56.327Z,75.74
2023-03-06T03:21:27.950Z,75.81
2023-03-06T03:21:59.568Z,75.75
2023-03-06T03:22:31.595Z,75.92
2023-03-06T03:23:03.770Z,75.73
2023-03-06T03:23:35.388Z,75.82
2023-03-06T03:24:07.668Z,75.84
2023-03-06T03:24:40.067Z,75.96
2023-03-06T03:25:11.822Z,75.95
2023-03-06T03:25:43.600Z,75.87
2023-03-06T03:26:18.781Z,75.99
2023-03-06T03:26:50.522Z,76.17
2023-03-06T03:27:22.352Z,76.12
2023-03-06T03:27:54.068Z,76.05
2023-03-06T03:28:25.668Z,75.87
2023-03-06T03:28:57.318Z,75.87
2023-03-06T03:29:28.957Z,75.77
2023-03-06T03:30:01.141Z,75.85
2023-03-06T03:30:32.838Z,76.40
2023-03-06T03:31:06.517Z,76.21
2023-03-06T03:31:38.225Z,75.89
2023-03-06T03:32:09.947Z,75.64
2023-03-06T03:32:41.961Z,75.78
2023-03-06T03:33:13.639Z,76.12
2023-03-06T03:33:45.312Z,76.29
2023-03-06T03:34:18.958Z,76.19
2023-03-06T03:34:50.728Z,76.15
2023-03-06T03:35:22.456Z,76.21
2023-03-06T03:36:01.562Z,76.16
2023-03-06T03:36:33.186Z,76.01
2023-03-06T03:37:04.807Z,75.87
2023-03-06T03:37:36.764Z,75.76
2023-03-06T03:38:08.534Z,75.96
2023-03-06T03:38:40.281Z,76.08
2023-03-06T03:39:12.029Z,76.01
2023-03-06T03:39:43.643Z,76.13
2023-03-06T03:40:15.258Z,76.06
2023-03-06T03:40:46.942Z,76.42
2023-03-06T03:41:18.552Z,76.29
2023-03-06T03:41:50.398Z,76.19
2023-03-06T03:42:22.311Z,75.94
2023-03-06T03:42:53.983Z,76.09
2023-03-06T03:43:25.666Z,76.33
2023-03-06T03:43:57.306Z,76.15
2023-03-06T03:44:28.975Z,75.95
2023-03-06T03:45:00.592Z,75.87
2023-03-06T03:45:32.170Z,76.08
2023-03-06T03:46:04.015Z,75.95
2023-03-06T03:46:36.253Z,75.71
2023-03-06T03:47:07.900Z,76.09
2023-03-06T03:47:40.629Z,76.80
2023-03-06T03:48:12.497Z,77.19
2023-03-06T03:48:44.117Z,77.07
2023-03-06T03:49:16.003Z,77.33
2023-03-06T03:49:47.692Z,77.93
2023-03-06T03:50:19.564Z,77.72
2023-03-06T03:50:51.240Z,77.31
2023-03-06T03:51:23.107Z,77.21
2023-03-06T03:51:54.725Z,76.88
2023-03-06T03:52:26.493Z,76.83
2023-03-06T03:52:58.103Z,77.02
2023-03-06T03:53:29.678Z,76.89
2023-03-06T03:54:01.758Z,76.73
2023-03-06T03:54:34.107Z,76.96
2023-03-06T03:55:06.230Z,76.69
2023-03-06T03:55:37.888Z,76.51
2023-03-06T03:56:10.458Z,76.73
2023-03-06T03:56:42.370Z,76.62
2023-03-06T03:57:14.138Z,76.47
2023-03-06T03:57:45.937Z,76.49
2023-03-06T03:58:17.586Z,76.39
2023-03-06T03:58:49.203Z,76.23
2023-03-06T03:59:21.188Z,76.30
2023-03-06T03:59:52.935Z,76.46
2023-03-06T04:00:24.745Z,76.68
2023-03-06T04:00:56.431Z,76.46
2023-03-06T04:01:28.112Z,76.35
2023-03-06T04:02:00.230Z,76.15
2023-03-06T04:02:31.923Z,76.09
2023-03-06T04:03:03.704Z,76.40
2023-03-06T04:03:35.461Z,76.85
2023-03-06T04:04:07.396Z,76.98
2023-03-06T04:04:39.058Z,76.97
2023-03-06T04:05:13.064Z,76.82
2023-03-06T04:05:44.693Z,76.68
2023-03-06T04:06:16.682Z,76.83
2023-03-06T04:06:48.818Z,77.01
2023-03-06T04:07:20.431Z,76.72
2023-03-06T04:07:52.266Z,76.62
2023-03-06T04:08:25.290Z,76.69
2023-03-06T04:08:57.526Z,76.72
2023-03-06T04:09:29.176Z,77.21
2023-03-06T04:10:00.764Z,78.29
2023-03-06T04:10:32.711Z,78.28
2023-03-06T04:11:04.695Z,77.83
2023-03-06T04:11:36.534Z,77.76
2023-03-06T04:12:08.369Z,78.06
2023-03-06T04:12:40.119Z,77.94
2023-03-06T04:13:11.813Z,77.88
2023-03-06T04:13:43.573Z,78.19
2023-03-06T04:14:15.214Z,77.94
2023-03-06T04:14:47.023Z,77.89
2023-03-06T04:15:18.673Z,77.57
2023-03-06T04:15:52.735Z,77.44
2023-03-06T04:16:24.502Z,77.74
2023-03-06T04:16:56.197Z,77.98
2023-03-06T04:17:28.244Z,77.98
2023-03-06T04:17:59.916Z,77.59
2023-03-06T04:18:31.600Z,77.19
2023-03-06T04:19:03.739Z,76.77
2023-03-06T04:19:35.694Z,76.74
2023-03-06T04:20:08.219Z,76.60
2023-03-06T04:20:39.832Z,76.39
2023-03-06T04:21:11.405Z,76.55
2023-03-06T04:21:43.071Z,76.63
2023-03-06T04:22:14.659Z,76.65
2023-03-06T04:22:46.238Z,76.77
2023-03-06T04:23:18.929Z,77.28
2023-03-06T04:23:50.692Z,77.82
2023-03-06T04:24:22.289Z,78.00
2023-03-06T04:24:54.062Z,78.12
2023-03-06T04:25:25.637Z,77.97
2023-03-06T04:25:57.347Z,78.03
2023-03-06T04:26:29.040Z,78.30
2023-03-06T04:27:00.720Z,78.79
2023-03-06T04:27:32.340Z,78.90
2023-03-06T04:28:04.682Z,78.99
2023-03-06T04:28:36.308Z,78.65
2023-03-06T04:29:07.975Z,78.50
2023-03-06T04:29:39.561Z,78.96
2023-03-06T04:30:12.078Z,78.99
2023-03-06T04:30:43.811Z,78.76
2023-03-06T04:31:15.542Z,78.90
2023-03-06T04:31:47.154Z,78.76
2023-03-06T04:32:21.357Z,78.71
2023-03-06T04:32:53.178Z,78.54
2023-03-06T04:33:24.788Z,78.97
2023-03-06T04:33:56.429Z,78.96
2023-03-06T04:34:28.031Z,78.93
2023-03-06T04:34:59.592Z,79.26
2023-03-06T04:35:31.337Z,79.34
2023-03-06T04:36:03.112Z,79.28
2023-03-06T04:36:35.387Z,79.14
2023-03-06T04:37:08.435Z,79.22
2023-03-06T04:37:40.127Z,79.23
2023-03-06T04:38:11.854Z,79.34
2023-03-06T04:38:43.405Z,79.57
2023-03-06T04:39:16.775Z,80.24
2023-03-06T04:39:48.518Z,80.49
2023-03-06T04:40:23.740Z,80.31
2023-03-06T04:40:55.533Z,79.84
2023-03-06T04:41:27.435Z,79.42
2023-03-06T04:41:59.254Z,79.23
2023-03-06T04:42:30.903Z,79.42
2023-03-06T04:43:03.666Z,79.69
2023-03-06T04:43:35.248Z,79.76
2023-03-06T04:44:07.549Z,79.82
2023-03-06T04:44:39.149Z,79.71
2023-03-06T04:45:11.143Z,79.29
2023-03-06T04:45:43.035Z,79.21
2023-03-06T04:46:14.694Z,79.50
2023-03-06T04:46:46.277Z,79.48
2023-03-06T04:47:19.220Z,79.19
2023-03-06T04:47:51.055Z,79.33
2023-03-06T04:48:22.674Z,79.32
2023-03-06T04:48:54.543Z,79.51
2023-03-06T04:49:26.174Z,79.37
2023-03-06T04:49:57.732Z,79.20
2023-03-06T04:50:32.630Z,79.23
2023-03-06T04:51:04.728Z,79.44
2023-03-06T04:51:37.019Z,79.13
2023-03-06T04:52:09.063Z,79.25
2023-03-06T04:52:40.726Z,79.81
2023-03-06T04:53:13.523Z,79.75
2023-03-06T04:53:45.327Z,79.65
2023-03-06T04:54:19.006Z,80.02
2023-03-06T04:54:50.709Z,80.42
2023-03-06T04:55:22.335Z,80.05
2023-03-06T04:55:53.952Z,79.45
2023-03-06T04:56:25.562Z,79.10
2023-03-06T04:56:57.439Z,79.38
2023-03-06T04:57:29.170Z,79.80
2023-03-06T04:58:01.016Z,80.71
2023-03-06T04:58:32.711Z,81.16
2023-03-06T04:59:04.877Z,81.26
2023-03-06T04:59:38.842Z,80.92
2023-03-06T05:00:17.756Z,81.03
2023-03-06T05:00:49.536Z,81.04
2023-03-06T05:01:21.294Z,80.61
2023-03-06T05:01:53.036Z,80.89
2023-03-06T05:02:24.817Z,82.23
2023-03-06T05:02:57.951Z,82.77
2023-03-06T05:03:29.639Z,83.12
2023-03-06T05:04:01.330Z,82.58
2023-03-06T05:04:32.937Z,81.88
2023-03-06T05:05:05.439Z,81.21
2023-03-06T05:05:37.125Z,80.70
2023-03-06T05:06:08.743Z,80.80
2023-03-06T05:06:40.415Z,80.86
2023-03-06T05:07:12.088Z,80.65
2023-03-06T05:07:44.352Z,80.48
2023-03-06T05:08:16.860Z,80.58
2023-03-06T05:08:48.493Z,80.85
2023-03-06T05:09:20.112Z,81.51
2023-03-06T05:09:51.762Z,82.00
2023-03-06T05:10:23.989Z,82.08
2023-03-06T05:11:00.538Z,82.03
2023-03-06T05:11:32.512Z,81.55
2023-03-06T05:12:04.373Z,81.35
2023-03-06T05:12:37.511Z,81.41
2023-03-06T05:13:09.466Z,81.48
2023-03-06T05:13:41.086Z,81.50
2023-03-06T05:14:12.658Z,81.28
2023-03-06T05:14:46.669Z,81.06
2023-03-06T05:15:20.107Z,81.14
2023-03-06T05:15:52.439Z,81.49
2023-03-06T05:16:24.107Z,81.59
2023-03-06T05:16:55.858Z,82.00
2023-03-06T05:17:27.472Z,81.78
2023-03-06T05:17:59.354Z,81.80
2023-03-06T05:18:31.771Z,81.60
2023-03-06T05:19:03.631Z,81.48
2023-03-06T05:19:35.286Z,81.43
2023-03-06T05:20:09.797Z,81.06
2023-03-06T05:20:41.583Z,81.18
2023-03-06T05:21:13.253Z,81.19
2023-03-06T05:21:44.847Z,81.07
2023-03-06T05:22:16.560Z,81.61
2023-03-06T05:22:48.164Z,81.61
2023-03-06T05:23:19.846Z,81.89
2023-03-06T05:23:51.484Z,81.68
2023-03-06T05:24:23.155Z,81.53
2023-03-06T05:24:54.732Z,81.75
2023-03-06T05:25:26.360Z,81.94
2023-03-06T05:25:58.838Z,81.88
2023-03-06T05:26:30.775Z,81.65
2023-03-06T05:27:02.503Z,81.33
2023-03-06T05:27:34.698Z,81.22
2023-03-06T05:28:07.155Z,81.24
2023-03-06T05:28:39.779Z,81.07
2023-03-06T05:29:11.363Z,81.06
2023-03-06T05:29:42.990Z,81.34
2023-03-06T05:30:15.384Z,81.38
2023-03-06T05:30:47.089Z,81.39
2023-03-06T05:31:19.022Z,81.49
2023-03-06T05:31:50.612Z,81.64
2023-03-06T05:32:22.632Z,81.76
2023-03-06T05:32:54.478Z,81.72
2023-03-06T05:33:26.856Z,81.90
2023-03-06T05:33:59.151Z,81.71
2023-03-06T05:34:30.760Z,81.78
2023-03-06T05:35:02.471Z,81.74
2023-03-06T05:35:34.450Z,81.66
2023-03-06T05:36:09.264Z,81.59
2023-03-06T05:36:41.554Z,81.43
2023-03-06T05:37:13.187Z,81.71
2023-03-06T05:37:45.161Z,81.67
2023-03-06T05:38:16.945Z,81.59
2023-03-06T05:38:48.607Z,81.81
2023-03-06T05:39:21.006Z,82.22
2023-03-06T05:39:52.754Z,82.40
2023-03-06T05:40:24.379Z,82.11
2023-03-06T05:40:56.188Z,82.18
2023-03-06T05:41:27.938Z,82.68
2023-03-06T05:41:59.789Z,82.81
2023-03-06T05:42:31.370Z,83.06
2023-03-06T05:43:02.983Z,82.92
2023-03-06T05:43:34.710Z,82.72
2023-03-06T05:44:06.600Z,82.79
2023-03-06T05:44:38.242Z,82.39
2023-03-06T05:45:10.612Z,82.57
2023-03-06T05:45:42.374Z,83.24
2023-03-06T05:46:14.238Z,83.26
2023-03-06T05:46:45.988Z,82.53
2023-03-06T05:47:17.681Z,82.38
2023-03-06T05:47:49.285Z,82.25
2023-03-06T05:48:20.848Z,82.32
2023-03-06T05:48:55.413Z,82.67
2023-03-06T05:49:27.436Z,83.29
2023-03-06T05:49:59.389Z,83.27
2023-03-06T05:50:31.110Z,83.56
2023-03-06T05:51:03.687Z,83.33
2023-03-06T05:51:35.301Z,83.00
2023-03-06T05:52:08.190Z,83.21
2023-03-06T05:52:40.221Z,83.13
2023-03-06T05:53:11.927Z,82.85
2023-03-06T05:53:43.705Z,82.35
2023-03-06T05:54:15.349Z,82.48
2023-03-06T05:54:50.511Z,82.42
2023-03-06T05:55:24.168Z,82.17
2023-03-06T05:56:05.662Z,82.13
2023-03-06T05:56:37.229Z,82.17
2023-03-06T05:57:08.894Z,82.67
2023-03-06T05:57:40.671Z,82.13
2023-03-06T05:58:12.280Z,81.80
2023-03-06T05:58:44.053Z,82.11
2023-03-06T05:59:15.683Z,82.25
2023-03-06T05:59:47.924Z,81.83
2023-03-06T06:00:20.265Z,81.98
2023-03-06T06:00:52.461Z,82.21
2023-03-06T06:01:25.433Z,82.38
2023-03-06T06:01:57.715Z,82.42
2023-03-06T06:02:29.339Z,82.51
2023-03-06T06:03:02.349Z,82.55
2023-03-06T06:03:34.048Z,82.71
2023-03-06T06:04:05.698Z,82.74
2023-03-06T06:04:37.538Z,82.69
2023-03-06T06:05:12.791Z,82.87
2023-03-06T06:05:45.067Z,82.96
2023-03-06T06:06:16.924Z,82.59
2023-03-06T06:06:55.538Z,82.34
2023-03-06T06:07:27.303Z,82.29
2023-03-06T06:07:58.969Z,82.04
2023-03-06T06:08:30.706Z,82.02
2023-03-06T06:09:02.286Z,81.79
2023-03-06T06:09:34.159Z,81.81
2023-03-06T06:10:07.018Z,82.04
2023-03-06T06:10:39.595Z,81.97
2023-03-06T06:11:13.171Z,82.61
2023-03-06T06:11:44.793Z,83.04
2023-03-06T06:12:16.501Z,82.87
2023-03-06T06:12:48.110Z,83.03
2023-03-06T06:13:19.687Z,82.94
2023-03-06T06:13:51.425Z,83.11
2023-03-06T06:14:23.287Z,83.08
2023-03-06T06:14:55.020Z,83.58
2023-03-06T06:15:29.007Z,83.65
2023-03-06T06:16:06.035Z,83.58
2023-03-06T06:16:37.629Z,83.15
2023-03-06T06:17:09.375Z,83.92
2023-03-06T06:17:40.944Z,84.04
2023-03-06T06:18:12.565Z,83.62
2023-03-06T06:18:44.615Z,83.93
2023-03-06T06:19:20.335Z,83.57
2023-03-06T06:19:52.062Z,83.05
2023-03-06T06:20:25.252Z,83.01
2023-03-06T06:20:56.833Z,83.21
2023-03-06T06:21:28.461Z,83.16
2023-03-06T06:22:02.759Z,83.32
2023-03-06T06:22:36.985Z,83.30
2023-03-06T06:23:10.907Z,83.29
2023-03-06T06:23:42.587Z,83.11
2023-03-06T06:24:15.855Z,82.91
2023-03-06T06:24:47.625Z,83.03
2023-03-06T06:25:19.384Z,83.20
2023-03-06T06:25:51.575Z,83.42
2023-03-06T06:26:23.318Z,83.72
2023-03-06T06:26:56.812Z,83.93
2023-03-06T06:27:28.439Z,84.01
2023-03-06T06:28:00.046Z,83.70
2023-03-06T06:28:32.306Z,84.69
2023-03-06T06:29:05.389Z,85.39
2023-03-06T06:29:37.016Z,84.96
2023-03-06T06:30:11.710Z,84.58
2023-03-06T06:30:43.339Z,84.63
2023-03-06T06:31:15.117Z,84.72
2023-03-06T06:31:47.296Z,84.04
2023-03-06T06:32:19.073Z,83.81
2023-03-06T06:32:51.040Z,83.61
2023-03-06T06:33:23.820Z,83.34
2023-03-06T06:33:55.376Z,82.98
2023-03-06T06:34:28.165Z,83.03
2023-03-06T06:34:59.949Z,83.06
2023-03-06T06:35:35.911Z,83.10
2023-03-06T06:36:16.627Z,82.86
2023-03-06T06:36:53.142Z,82.80
2023-03-06T06:37:26.100Z,82.82
2023-03-06T06:37:57.765Z,82.90
2023-03-06T06:38:29.503Z,83.25
2023-03-06T06:39:01.172Z,82.82
2023-03-06T06:39:32.873Z,82.52
2023-03-06T06:40:05.726Z,82.35
2023-03-06T06:40:37.328Z,82.60
2023-03-06T06:41:38.768Z,82.90
2023-03-06T06:42:21.737Z,82.73
2023-03-06T06:42:53.900Z,82.72
2023-03-06T06:43:25.483Z,83.19
2023-03-06T06:43:59.176Z,83.56
2023-03-06T06:44:30.906Z,82.85
2023-03-06T06:45:05.393Z,82.39
2023-03-06T06:45:37.516Z,82.42
2023-03-06T06:46:32.341Z,82.52
2023-03-06T06:47:52.903Z,83.78
2023-03-06T06:48:24.735Z,84.29
2023-03-06T06:48:56.419Z,84.25
2023-03-06T06:49:28.048Z,84.52
2023-03-06T06:49:59.784Z,84.22
2023-03-06T06:50:31.483Z,83.83
2023-03-06T06:51:03.175Z,83.63
2023-03-06T06:51:34.802Z,83.43
2023-03-06T06:52:07.354Z,83.14
2023-03-06T06:52:39.158Z,83.24
2023-03-06T06:53:10.781Z,83.41
2023-03-06T06:53:42.649Z,83.74
2023-03-06T06:54:14.281Z,83.95
2023-03-06T06:54:46.033Z,83.91
2023-03-06T06:55:17.694Z,84.18
2023-03-06T06:55:49.774Z,84.30
2023-03-06T06:56:21.390Z,84.11
2023-03-06T06:56:53.033Z,83.77
2023-03-06T06:57:24.663Z,83.78
2023-03-06T06:57:56.301Z,83.85
2023-03-06T06:58:27.922Z,83.11
2023-03-06T06:59:15.593Z,83.36
2023-03-06T06:59:48.539Z,83.77
2023-03-06T07:00:20.653Z,83.48
2023-03-06T07:00:52.345Z,83.25
2023-03-06T07:01:24.043Z,82.98